Time;durP1;ratioP1;P1;durP2;ratioP2;P2;SDS_P1;SDS_P2;PMS_P1;PMS_P2;Temp;Humidity;BMP_temperature;BMP_pressure;BME280_temperature;BME280_humidity;BME280_pressure;Samples;Min_cycle;Max_cycle;Signal;HPM_P1;HPM_P2
2021/03/11 00:00:19;;;;;;;24.90;15.67;;;;;;;2.22;84.34;95713.97;1284884;23;20357;-71
2021/03/11 00:00:50;;;;;;;21.38;14.00;;;;;;;2.19;83.76;95709.13;1284853;23;20430;-68
2021/03/11 00:01:21;;;;;;;22.13;15.07;;;;;;;2.12;84.16;95718.97;1284867;23;20064;-72
2021/03/11 00:01:51;;;;;;;22.10;14.50;;;;;;;2.16;84.03;95710.41;1284702;23;20001;-70
2021/03/11 00:02:21;;;;;;;22.30;14.80;;;;;;;2.13;83.86;95713.47;1284872;23;20008;-69
2021/03/11 00:02:52;;;;;;;22.10;14.50;;;;;;;2.13;84.09;95704.78;1284885;23;20491;-70
2021/03/11 00:03:24;;;;;;;22.57;14.77;;;;;;;2.14;84.31;95709.00;1284704;23;20060;-70
2021/03/11 00:03:54;;;;;;;22.38;15.00;;;;;;;2.08;84.36;95714.16;1284380;23;20004;-70
2021/03/11 00:04:24;;;;;;;23.10;15.37;;;;;;;2.07;84.58;95715.19;1278216;23;20008;-70
2021/03/11 00:04:55;;;;;;;21.60;15.00;;;;;;;2.08;84.32;95708.88;1278344;23;20001;-69
2021/03/11 00:05:25;;;;;;;24.30;15.40;;;;;;;2.16;84.70;95701.69;1278319;23;19993;-70
2021/03/11 00:05:56;;;;;;;22.07;14.83;;;;;;;2.18;84.24;95715.44;1284410;23;20455;-70
2021/03/11 00:06:26;;;;;;;20.67;14.50;;;;;;;2.22;84.40;95711.34;1290785;23;20352;-70
2021/03/11 00:06:57;;;;;;;25.30;16.00;;;;;;;2.17;84.27;95713.84;1290704;23;20000;-71
2021/03/11 00:07:27;;;;;;;24.10;15.83;;;;;;;2.09;84.22;95713.13;1284448;23;20082;-70
2021/03/11 00:07:58;;;;;;;24.33;15.20;;;;;;;2.16;84.56;95710.41;1284431;23;20000;-70
2021/03/11 00:08:28;;;;;;;21.70;15.00;;;;;;;2.20;84.29;95711.56;1284561;23;20023;-69
2021/03/11 00:08:58;;;;;;;24.97;15.37;;;;;;;2.18;84.12;95710.97;1284132;23;20001;-70
2021/03/11 00:09:29;;;;;;;24.70;14.70;;;;;;;2.19;84.52;95712.56;1284843;23;20000;-70
2021/03/11 00:09:59;;;;;;;23.57;15.00;;;;;;;2.16;84.16;95713.03;1284797;23;20059;-70
2021/03/11 00:10:30;;;;;;;22.07;15.27;;;;;;;2.22;84.41;95709.50;1284761;23;19997;-68
2021/03/11 00:11:01;;;;;;;21.83;14.27;;;;;;;2.25;83.65;95708.25;1284815;23;20008;-70
2021/03/11 00:11:31;;;;;;;21.50;15.63;;;;;;;2.23;83.98;95712.94;1284801;23;20255;-69
2021/03/11 00:12:06;;;;;;;21.27;14.87;;;;;;;2.23;83.51;95715.59;1284666;23;20001;-70
2021/03/11 00:12:46;;;;;;;22.02;14.82;;;;;;;2.17;84.12;95706.75;1284764;23;19999;-70
2021/03/11 00:13:17;;;;;;;22.10;14.50;;;;;;;2.26;83.73;95710.66;1284881;23;19989;-69
2021/03/11 00:13:47;;;;;;;23.93;14.80;;;;;;;2.22;83.70;95712.16;1284714;23;19993;-69
2021/03/11 00:14:18;;;;;;;22.37;14.60;;;;;;;2.30;84.16;95711.84;1284312;23;19988;-70
2021/03/11 00:14:48;;;;;;;24.50;14.93;;;;;;;2.28;84.08;95713.06;1284450;23;19995;-70
2021/03/11 00:15:20;;;;;;;24.03;14.17;;;;;;;2.26;83.42;95713.31;1284353;23;20024;-69
2021/03/11 00:15:50;;;;;;;23.77;14.25;;;;;;;2.26;83.53;95708.03;1284467;23;20016;-69
2021/03/11 00:16:20;;;;;;;24.83;15.23;;;;;;;2.30;83.79;95711.00;1284619;23;20003;-70
2021/03/11 00:16:51;;;;;;;22.10;15.07;;;;;;;2.28;83.50;95705.16;1284644;23;19989;-70
2021/03/11 00:17:21;;;;;;;22.53;15.33;;;;;;;2.25;83.96;95709.06;1284709;23;20031;-71
2021/03/11 00:17:52;;;;;;;22.27;14.53;;;;;;;2.23;83.94;95710.31;1290027;23;19999;-69
2021/03/11 00:18:22;;;;;;;19.43;13.40;;;;;;;2.28;84.00;95713.06;1290582;23;20031;-70
2021/03/11 00:18:53;;;;;;;22.50;14.63;;;;;;;2.28;83.47;95708.59;1290654;23;20429;-69
2021/03/11 00:19:23;;;;;;;21.20;14.37;;;;;;;2.13;84.13;95705.56;1290553;23;20430;-70
2021/03/11 00:19:53;;;;;;;23.37;15.27;;;;;;;2.16;83.60;95709.59;1284546;23;20019;-69
2021/03/11 00:20:25;;;;;;;23.17;15.27;;;;;;;2.18;84.24;95712.81;1284859;23;20338;-70
2021/03/11 00:20:55;;;;;;;20.80;13.75;;;;;;;2.19;83.58;95711.78;1284929;23;20004;-69
2021/03/11 00:21:26;;;;;;;20.53;14.63;;;;;;;2.13;84.49;95710.84;1284762;23;20027;-69
2021/03/11 00:21:57;;;;;;;24.17;14.70;;;;;;;2.16;84.43;95709.59;1284875;23;19992;-71
2021/03/11 00:22:27;;;;;;;22.48;14.68;;;;;;;2.13;83.91;95707.41;1284836;23;20047;-70
2021/03/11 00:22:57;;;;;;;22.17;14.37;;;;;;;2.21;83.64;95712.38;1284903;23;19992;-70
2021/03/11 00:23:28;;;;;;;22.10;14.83;;;;;;;2.21;83.55;95707.09;1284748;23;20000;-69
2021/03/11 00:23:58;;;;;;;23.97;14.90;;;;;;;2.23;83.59;95713.75;1284743;23;20003;-70
2021/03/11 00:24:29;;;;;;;22.03;14.57;;;;;;;2.25;83.59;95709.06;1284925;23;20008;-70
2021/03/11 00:24:59;;;;;;;20.50;14.43;;;;;;;2.27;83.28;95711.47;1284766;23;20003;-70
2021/03/11 00:25:30;;;;;;;21.00;14.30;;;;;;;2.22;84.08;95717.41;1284901;23;20004;-70
2021/03/11 00:26:01;;;;;;;21.95;14.52;;;;;;;2.23;83.42;95713.75;1284912;23;20042;-70
2021/03/11 00:26:31;;;;;;;21.03;14.47;;;;;;;2.25;83.48;95716.16;1284734;23;20369;-69
2021/03/11 00:27:02;;;;;;;24.50;13.93;;;;;;;2.26;83.78;95718.59;1284820;23;19989;-70
2021/03/11 00:27:32;;;;;;;21.77;14.93;;;;;;;2.23;83.64;95715.59;1284931;23;20004;-70
2021/03/11 00:28:04;;;;;;;20.80;14.13;;;;;;;2.21;83.84;95715.00;1284884;23;20050;-70
2021/03/11 00:28:34;;;;;;;23.67;14.38;;;;;;;2.20;83.85;95716.84;1284755;23;20528;-71
2021/03/11 00:29:05;;;;;;;22.90;15.00;;;;;;;2.23;83.55;95715.59;1284723;23;20001;-69
2021/03/11 00:29:35;;;;;;;21.30;14.33;;;;;;;2.22;83.26;95714.78;1284783;23;20426;-70
2021/03/11 00:30:07;;;;;;;21.90;15.00;;;;;;;2.23;84.04;95715.59;1284741;23;20434;-69
2021/03/11 00:30:38;;;;;;;23.90;14.82;;;;;;;2.30;83.56;95716.28;1284823;23;20023;-71
2021/03/11 00:31:08;;;;;;;22.42;14.60;;;;;;;2.26;83.40;95710.66;1284764;23;20003;-70
2021/03/11 00:31:38;;;;;;;21.60;14.17;;;;;;;2.28;83.42;95715.72;1284681;23;19993;-69
2021/03/11 00:32:09;;;;;;;22.13;14.00;;;;;;;2.24;83.60;95717.19;1284765;23;19993;-69
2021/03/11 00:32:40;;;;;;;20.88;14.10;;;;;;;2.22;83.80;95712.16;1284876;23;20008;-70
2021/03/11 00:33:10;;;;;;;22.47;14.40;;;;;;;2.21;83.57;95713.19;1284687;23;20018;-69
2021/03/11 00:33:41;;;;;;;23.43;14.80;;;;;;;2.19;83.23;95715.22;1284813;23;19996;-69
2021/03/11 00:34:11;;;;;;;21.67;14.07;;;;;;;2.17;84.25;95713.84;1284898;23;20000;-70
2021/03/11 00:34:42;;;;;;;21.13;13.90;;;;;;;2.12;84.06;95709.25;1284740;23;20092;-70
2021/03/11 00:35:12;;;;;;;21.30;14.60;;;;;;;2.14;83.90;95714.28;1284754;23;19993;-70
2021/03/11 00:35:43;;;;;;;20.17;14.00;;;;;;;2.13;83.77;95713.47;1284951;23;20000;-70
2021/03/11 00:36:13;;;;;;;25.10;14.37;;;;;;;2.11;84.19;95712.09;1284867;23;20403;-71
2021/03/11 00:36:44;;;;;;;19.50;14.07;;;;;;;2.09;84.55;95720.22;1284682;23;20605;-69
2021/03/11 00:37:14;;;;;;;21.50;14.30;;;;;;;2.14;83.85;95719.56;1284965;23;20012;-70
2021/03/11 00:37:45;;;;;;;18.87;13.57;;;;;;;2.12;84.47;95716.34;1284909;23;20008;-68
2021/03/11 00:38:16;;;;;;;23.60;14.75;;;;;;;2.19;84.36;95714.41;1284921;23;20525;-70
2021/03/11 00:38:46;;;;;;;22.27;14.80;;;;;;;2.13;84.18;95713.47;1284883;23;20001;-70
2021/03/11 00:39:19;;;;;;;22.43;14.53;;;;;;;2.15;83.77;95718.53;1284733;23;19993;-68
2021/03/11 00:39:49;;;;;;;21.90;14.77;;;;;;;2.17;84.41;95724.38;1284892;23;20410;-71
2021/03/11 00:40:21;;;;;;;22.40;14.03;;;;;;;2.18;84.04;95712.81;1284744;23;19996;-70
2021/03/11 00:40:51;;;;;;;21.75;14.90;;;;;;;2.22;83.34;95716.63;1284864;23;19997;-69
2021/03/11 00:41:22;;;;;;;20.33;14.30;;;;;;;2.21;83.59;95715.81;1284784;23;20426;-69
2021/03/11 00:41:52;;;;;;;19.97;14.13;;;;;;;2.26;83.78;95708.03;1284756;23;20410;-69
2021/03/11 00:42:22;;;;;;;19.53;13.73;;;;;;;2.26;83.18;95708.03;1284401;23;20322;-70
2021/03/11 00:42:53;;;;;;;19.73;13.60;;;;;;;2.25;83.21;95710.88;1284450;23;20322;-70
2021/03/11 00:43:23;;;;;;;19.83;13.57;;;;;;;2.24;83.59;95707.44;1284410;23;20350;-70
2021/03/11 00:43:54;;;;;;;23.50;15.17;;;;;;;2.26;83.46;95705.41;1284534;23;20422;-70
2021/03/11 00:44:24;;;;;;;19.37;14.13;;;;;;;2.27;83.01;95707.00;1284738;23;19997;-68
2021/03/11 00:44:54;;;;;;;20.13;12.90;;;;;;;2.31;83.25;95702.91;1284838;23;20008;-68
2021/03/11 00:45:25;;;;;;;21.70;13.53;;;;;;;2.32;83.18;95706.34;1284785;23;19997;-70
2021/03/11 00:45:55;;;;;;;21.13;13.90;;;;;;;2.31;82.85;95710.00;1284804;23;20003;-70
2021/03/11 00:46:26;;;;;;;19.37;13.10;;;;;;;2.31;82.88;95704.72;1284719;23;19999;-69
2021/03/11 00:46:56;;;;;;;22.33;14.00;;;;;;;2.32;82.91;95707.13;1284710;23;19997;-68
2021/03/11 00:47:27;;;;;;;19.70;13.37;;;;;;;2.31;83.15;95700.25;1284765;23;20058;-69
2021/03/11 00:47:57;;;;;;;20.37;13.57;;;;;;;2.33;82.60;95705.28;1284827;23;20000;-69
2021/03/11 00:48:28;;;;;;;19.40;13.20;;;;;;;2.34;82.38;95707.69;1284702;23;19996;-69
2021/03/11 00:48:58;;;;;;;19.37;13.33;;;;;;;2.31;82.41;95702.09;1284775;23;20004;-69
2021/03/11 00:49:28;;;;;;;19.60;13.27;;;;;;;2.30;82.98;95701.28;1284677;23;20419;-70
2021/03/11 00:49:59;;;;;;;20.40;13.27;;;;;;;2.34;83.09;95707.69;1284715;23;20011;-69
2021/03/11 00:50:29;;;;;;;23.27;14.50;;;;;;;2.36;82.97;95704.84;1284723;23;19997;-69
2021/03/11 00:51:00;;;;;;;20.17;13.13;;;;;;;2.32;82.69;95706.34;1284832;23;20007;-69
2021/03/11 00:51:30;;;;;;;21.23;13.33;;;;;;;2.29;83.03;95704.13;1284628;23;19996;-69
2021/03/11 00:52:01;;;;;;;18.97;13.10;;;;;;;2.27;82.98;95700.94;1284797;23;20000;-69
2021/03/11 00:52:32;;;;;;;20.15;13.43;;;;;;;2.35;82.88;95705.88;1284809;23;20386;-69
2021/03/11 00:53:02;;;;;;;18.87;12.40;;;;;;;2.39;82.62;95698.31;1284826;23;19996;-69
2021/03/11 00:53:32;;;;;;;20.07;13.30;;;;;;;2.37;82.54;95705.66;1284188;23;19997;-69
2021/03/11 00:54:03;;;;;;;21.23;13.00;;;;;;;2.31;82.71;95707.38;1284392;23;20008;-70
2021/03/11 00:54:33;;;;;;;17.97;12.90;;;;;;;2.30;82.95;95701.28;1284359;23;20016;-69
2021/03/11 00:55:06;;;;;;;19.73;13.63;;;;;;;2.33;82.67;95700.03;1284222;23;19993;-69
2021/03/11 00:55:37;;;;;;;20.33;12.55;;;;;;;2.32;82.30;95704.50;1284666;23;20046;-70
2021/03/11 00:56:07;;;;;;;19.53;13.13;;;;;;;2.23;82.70;95686.56;1284818;23;20051;-69
2021/03/11 00:56:37;;;;;;;17.80;11.87;;;;;;;2.15;82.75;95695.63;1284702;23;20000;-69
2021/03/11 00:57:08;;;;;;;19.43;13.20;;;;;;;2.19;83.07;95703.88;1284624;23;20004;-69
2021/03/11 00:57:39;;;;;;;17.57;12.40;;;;;;;2.14;82.91;95698.47;1284608;23;20005;-70
2021/03/11 00:58:09;;;;;;;21.50;12.80;;;;;;;2.23;82.94;95699.75;1284602;23;20331;-69
2021/03/11 00:58:40;;;;;;;19.53;12.67;;;;;;;2.26;83.38;95700.13;1284853;23;20004;-69
2021/03/11 00:59:10;;;;;;;18.63;12.83;;;;;;;2.27;82.77;95696.44;1284760;23;20009;-69
2021/03/11 00:59:40;;;;;;;17.73;12.93;;;;;;;2.30;82.76;95690.75;1284741;23;20003;-69
2021/03/11 01:00:13;;;;;;;20.63;12.83;;;;;;;2.26;82.64;95699.31;1284620;23;20016;-69
2021/03/11 01:00:43;;;;;;;19.25;12.13;;;;;;;2.25;83.44;95695.06;1284719;23;20001;-69
2021/03/11 01:01:13;;;;;;;22.10;13.57;;;;;;;2.28;83.40;95690.16;1284775;23;20001;-69
2021/03/11 01:01:44;;;;;;;18.27;13.00;;;;;;;2.22;83.02;95692.88;1284701;23;20001;-69
2021/03/11 01:02:14;;;;;;;18.87;13.03;;;;;;;2.22;83.81;95690.25;1284739;23;20004;-69
2021/03/11 01:02:45;;;;;;;20.70;12.57;;;;;;;2.28;83.49;95689.34;1284746;23;20001;-69
2021/03/11 01:03:15;;;;;;;19.97;12.70;;;;;;;2.30;83.25;95695.19;1284754;23;20004;-69
2021/03/11 01:03:46;;;;;;;18.47;12.97;;;;;;;2.26;83.40;95697.50;1284743;23;20003;-69
2021/03/11 01:04:16;;;;;;;19.57;13.17;;;;;;;2.27;83.31;95690.38;1284686;23;20004;-69
2021/03/11 01:04:47;;;;;;;17.90;12.10;;;;;;;2.26;83.94;95686.13;1284674;23;19997;-69
2021/03/11 01:05:25;;;;;;;16.33;11.97;;;;;;;2.25;83.36;95689.78;1284713;23;20003;-69
2021/03/11 01:05:55;;;;;;;18.33;12.27;;;;;;;2.21;83.53;95693.91;1284738;23;20028;-69
2021/03/11 01:06:26;;;;;;;18.20;12.80;;;;;;;2.18;83.96;95691.72;1284706;23;20131;-70
2021/03/11 01:06:56;;;;;;;24.07;13.57;;;;;;;2.25;83.96;95687.16;1284485;23;20362;-69
2021/03/11 01:07:26;;;;;;;19.53;13.33;;;;;;;2.29;83.58;95689.09;1284686;23;20430;-69
2021/03/11 01:07:57;;;;;;;17.53;11.77;;;;;;;2.31;83.69;95689.72;1284699;23;20331;-69
2021/03/11 01:08:27;;;;;;;19.83;12.43;;;;;;;2.31;83.66;95689.72;1284785;23;20344;-69
2021/03/11 01:08:58;;;;;;;18.73;13.13;;;;;;;2.33;83.59;95685.00;1284753;23;20023;-69
2021/03/11 01:09:28;;;;;;;19.00;12.67;;;;;;;2.33;82.91;95687.63;1284772;23;20118;-69
2021/03/11 01:09:59;;;;;;;18.10;12.23;;;;;;;2.34;83.00;95691.06;1284778;23;20001;-69
2021/03/11 01:10:29;;;;;;;19.03;12.30;;;;;;;2.30;83.17;95689.91;1284787;23;20015;-69
2021/03/11 01:11:00;;;;;;;21.63;13.00;;;;;;;2.32;83.76;95698.41;1284808;23;20521;-69
2021/03/11 01:11:30;;;;;;;19.17;13.17;;;;;;;2.33;83.91;95690.28;1284683;23;20334;-69
2021/03/11 01:12:01;;;;;;;18.27;12.77;;;;;;;2.37;83.77;95695.09;1284870;23;20004;-69
2021/03/11 01:12:31;;;;;;;18.80;11.70;;;;;;;2.25;83.45;95689.78;1284601;23;20008;-69
2021/03/11 01:13:02;;;;;;;18.73;12.90;;;;;;;2.24;83.16;95688.19;1284715;23;20005;-69
2021/03/11 01:13:33;;;;;;;21.05;12.60;;;;;;;2.27;83.44;95691.19;1284772;23;20005;-69
2021/03/11 01:14:03;;;;;;;16.57;11.53;;;;;;;2.31;83.26;95691.53;1284656;23;20410;-69
2021/03/11 01:14:33;;;;;;;20.13;12.67;;;;;;;2.31;83.71;95694.97;1284712;23;20025;-69
2021/03/11 01:15:06;;;;;;;20.13;11.70;;;;;;;2.32;83.62;95688.66;1284768;23;20001;-69
2021/03/11 01:15:37;;;;;;;18.10;12.57;;;;;;;2.31;83.84;95686.28;1284773;23;19997;-69
2021/03/11 01:16:08;;;;;;;16.10;11.40;;;;;;;2.38;83.00;95697.50;1284670;23;19993;-69
2021/03/11 01:16:38;;;;;;;18.63;12.83;;;;;;;2.40;83.42;95684.09;1284694;23;20004;-68
2021/03/11 01:17:09;;;;;;;19.70;11.47;;;;;;;2.36;83.53;95682.97;1284610;23;20019;-69
2021/03/11 01:17:39;;;;;;;19.83;11.73;;;;;;;2.36;83.00;95680.31;1284725;23;20012;-69
2021/03/11 01:18:10;;;;;;;16.93;11.93;;;;;;;2.38;82.94;95702.00;1284725;23;20370;-69
2021/03/11 01:18:41;;;;;;;16.48;11.75;;;;;;;2.38;82.68;95694.88;1284803;23;20418;-69
2021/03/11 01:19:11;;;;;;;15.67;11.37;;;;;;;2.32;83.29;95688.66;1284296;23;20027;-69
2021/03/11 01:19:42;;;;;;;17.60;12.03;;;;;;;2.38;83.11;95694.06;1284341;23;20083;-69
2021/03/11 01:20:15;;;;;;;17.60;12.47;;;;;;;2.37;82.51;95692.47;1284355;23;20294;-69
2021/03/11 01:20:45;;;;;;;19.38;11.80;;;;;;;2.42;82.63;95689.97;1284046;23;20001;-69
2021/03/11 01:21:16;;;;;;;17.43;11.63;;;;;;;2.38;83.24;95686.97;1284522;23;19996;-69
2021/03/11 01:21:46;;;;;;;20.77;11.90;;;;;;;2.37;82.67;95688.00;1284415;23;19996;-69
2021/03/11 01:22:17;;;;;;;18.63;11.70;;;;;;;2.45;82.62;95689.50;1284785;23;20000;-69
2021/03/11 01:22:47;;;;;;;17.10;11.77;;;;;;;2.45;82.38;95692.94;1284734;23;20008;-69
2021/03/11 01:23:17;;;;;;;18.93;11.33;;;;;;;2.47;82.32;95695.38;1284776;23;20299;-69
2021/03/11 01:23:48;;;;;;;19.90;12.37;;;;;;;2.50;82.46;95698.34;1284643;23;19996;-69
2021/03/11 01:24:18;;;;;;;17.90;11.60;;;;;;;2.57;82.53;95693.78;1290485;23;20004;-69
2021/03/11 01:24:49;;;;;;;16.00;11.47;;;;;;;2.58;82.17;95692.75;1290566;23;20000;-69
2021/03/11 01:25:19;;;;;;;16.97;11.17;;;;;;;2.60;81.54;95689.88;1290601;23;19996;-69
2021/03/11 01:25:49;;;;;;;18.57;11.83;;;;;;;2.59;81.58;95694.34;1290549;23;20004;-69
2021/03/11 01:26:20;;;;;;;18.40;10.97;;;;;;;2.60;81.90;95693.31;1284818;23;20000;-69
2021/03/11 01:26:50;;;;;;;16.87;11.60;;;;;;;2.63;81.90;95696.53;1284507;23;19992;-69
2021/03/11 01:27:21;;;;;;;16.10;11.50;;;;;;;2.63;81.43;95694.72;1284802;23;20054;-69
2021/03/11 01:27:51;;;;;;;16.33;11.43;;;;;;;2.65;81.96;95694.47;1284731;23;20326;-69
2021/03/11 01:28:22;;;;;;;16.80;11.50;;;;;;;2.64;81.49;95690.22;1284645;23;20011;-69
2021/03/11 01:28:52;;;;;;;16.63;11.53;;;;;;;2.66;81.96;95690.78;1284575;23;20008;-69
2021/03/11 01:29:23;;;;;;;16.63;11.40;;;;;;;2.66;81.83;95690.78;1284735;23;20000;-69
2021/03/11 01:29:53;;;;;;;15.63;11.13;;;;;;;2.66;81.71;95691.59;1284671;23;20011;-69
2021/03/11 01:30:24;;;;;;;16.53;10.73;;;;;;;2.65;82.05;95686.56;1284719;23;20031;-69
2021/03/11 01:30:54;;;;;;;16.10;11.23;;;;;;;2.68;82.16;95688.75;1284729;23;20003;-69
2021/03/11 01:31:25;;;;;;;15.67;10.60;;;;;;;2.68;81.73;95691.38;1284758;23;20387;-69
2021/03/11 01:31:55;;;;;;;14.93;10.70;;;;;;;2.69;81.38;95685.06;1284658;23;20310;-69
2021/03/11 01:32:25;;;;;;;16.33;11.50;;;;;;;2.68;81.27;95702.75;1284734;23;20438;-69
2021/03/11 01:32:56;;;;;;;17.33;11.60;;;;;;;2.59;81.14;95690.91;1284202;23;20422;-69
2021/03/11 01:33:26;;;;;;;16.57;11.10;;;;;;;2.56;81.26;95681.63;1277991;23;20048;-69
2021/03/11 01:33:57;;;;;;;20.07;11.47;;;;;;;2.57;81.28;95679.78;1278213;23;20632;-68
2021/03/11 01:34:27;;;;;;;16.43;11.67;;;;;;;2.59;81.46;95683.78;1278242;23;20017;-68
2021/03/11 01:34:58;;;;;;;17.00;11.90;;;;;;;2.62;81.52;95684.38;1284422;23;20438;-68
2021/03/11 01:35:28;;;;;;;16.00;11.40;;;;;;;2.65;81.61;95676.00;1284702;23;20009;-68
2021/03/11 01:35:58;;;;;;;18.80;11.80;;;;;;;2.66;81.10;95683.69;1284791;23;20366;-69
2021/03/11 01:36:29;;;;;;;16.00;11.50;;;;;;;2.63;81.54;95683.34;1284763;23;20012;-69
2021/03/11 01:36:59;;;;;;;17.40;11.60;;;;;;;2.63;81.66;95678.06;1284384;23;20083;-69
2021/03/11 01:37:30;;;;;;;17.77;11.13;;;;;;;2.58;81.42;95676.91;1284606;23;20001;-69
2021/03/11 01:38:00;;;;;;;16.17;11.00;;;;;;;2.63;81.41;95683.34;1284727;23;19993;-69
2021/03/11 01:38:31;;;;;;;18.33;11.07;;;;;;;2.66;81.22;95669.69;1284711;23;20008;-69
2021/03/11 01:39:01;;;;;;;16.97;11.23;;;;;;;2.60;81.17;95674.84;1290512;23;20491;-69
2021/03/11 01:39:31;;;;;;;16.63;10.60;;;;;;;2.57;81.79;95679.78;1290499;23;20000;-68
2021/03/11 01:40:04;;;;;;;16.20;11.40;;;;;;;2.57;81.57;95672.69;1290678;23;20004;-69
2021/03/11 01:40:34;;;;;;;17.20;10.80;;;;;;;2.62;81.23;95658.00;1290040;23;20057;-69
2021/03/11 01:41:05;;;;;;;15.40;10.67;;;;;;;2.56;81.37;95651.81;1284657;23;20017;-68
2021/03/11 01:41:35;;;;;;;17.67;10.43;;;;;;;2.58;81.58;95653.16;1284638;23;20415;-69
2021/03/11 01:42:06;;;;;;;15.73;10.70;;;;;;;2.54;81.92;95638.03;1284565;23;20414;-69
2021/03/11 01:42:36;;;;;;;17.63;11.03;;;;;;;2.53;82.00;95653.03;1284736;23;19996;-69
2021/03/11 01:43:07;;;;;;;15.93;10.60;;;;;;;2.53;81.54;95658.31;1284224;23;19997;-69
2021/03/11 01:43:37;;;;;;;15.97;10.83;;;;;;;2.49;81.52;95648.44;1284334;23;20062;-68
2021/03/11 01:44:07;;;;;;;16.47;10.90;;;;;;;2.37;81.67;95632.63;1284351;23;20094;-69
2021/03/11 01:44:38;;;;;;;15.17;10.70;;;;;;;2.39;81.54;95667.47;1284409;23;20003;-68
2021/03/11 01:45:09;;;;;;;15.03;10.57;;;;;;;2.43;81.33;95655.44;1284574;23;19996;-68
2021/03/11 01:45:39;;;;;;;15.80;11.05;;;;;;;2.33;81.89;95647.28;1284777;23;20017;-68
2021/03/11 01:46:10;;;;;;;17.53;10.43;;;;;;;2.24;82.61;95644.16;1284768;23;20005;-69
2021/03/11 01:46:40;;;;;;;17.17;11.60;;;;;;;2.26;82.94;95647.38;1284802;23;20004;-68
2021/03/11 01:47:11;;;;;;;15.87;10.03;;;;;;;2.26;82.57;95647.38;1284633;23;19988;-68
2021/03/11 01:47:41;;;;;;;15.97;10.43;;;;;;;2.24;82.50;95643.34;1284311;23;20004;-69
2021/03/11 01:48:11;;;;;;;15.43;10.63;;;;;;;2.25;82.88;95644.94;1284306;23;20003;-68
2021/03/11 01:48:42;;;;;;;14.17;10.07;;;;;;;2.27;82.87;95633.16;1284375;23;20001;-69
2021/03/11 01:49:12;;;;;;;16.23;10.60;;;;;;;2.28;82.21;95631.31;1284200;23;20001;-68
2021/03/11 01:49:43;;;;;;;19.53;10.97;;;;;;;2.25;82.20;95637.88;1284735;23;19999;-69
2021/03/11 01:50:13;;;;;;;18.50;10.37;;;;;;;2.21;83.11;95631.44;1284612;23;20042;-69
2021/03/11 01:50:43;;;;;;;16.77;10.17;;;;;;;2.21;82.34;95643.81;1284721;23;20005;-68
2021/03/11 01:51:14;;;;;;;17.93;10.53;;;;;;;2.22;82.86;95634.88;1284677;23;19992;-69
2021/03/11 01:51:45;;;;;;;17.20;10.17;;;;;;;2.23;82.66;95623.28;1284307;23;20080;-69
2021/03/11 01:52:15;;;;;;;14.97;9.67;;;;;;;2.22;82.59;95611.16;1277998;23;20084;-68
2021/03/11 01:52:46;;;;;;;15.10;9.83;;;;;;;2.21;82.16;95583.97;1272017;23;20327;-68
2021/03/11 01:53:16;;;;;;;16.60;10.17;;;;;;;2.20;82.62;95582.38;1272097;23;20439;-69
2021/03/11 01:53:48;;;;;;;15.00;10.37;;;;;;;2.18;82.68;95575.72;1272021;23;20005;-69
2021/03/11 01:54:19;;;;;;;17.88;10.63;;;;;;;2.21;82.68;95580.53;1277951;23;20084;-69
2021/03/11 01:54:49;;;;;;;16.20;9.97;;;;;;;2.22;82.50;95577.66;1271955;23;20041;-69
2021/03/11 01:55:20;;;;;;;15.43;9.87;;;;;;;2.19;82.17;95587.84;1272341;23;20033;-69
2021/03/11 01:55:50;;;;;;;19.27;9.77;;;;;;;2.17;82.26;95582.81;1272104;23;20001;-69
2021/03/11 01:56:21;;;;;;;15.93;10.07;;;;;;;2.15;82.01;95579.63;1272043;23;20013;-69
2021/03/11 01:56:51;;;;;;;15.63;9.57;;;;;;;2.17;82.60;95587.28;1278041;23;20001;-69
2021/03/11 01:57:22;;;;;;;15.87;9.30;;;;;;;2.15;82.65;95594.59;1278156;23;19997;-69
2021/03/11 01:57:52;;;;;;;15.47;9.50;;;;;;;2.18;82.10;95591.53;1278010;23;20407;-70
2021/03/11 01:58:22;;;;;;;16.60;10.03;;;;;;;2.14;82.65;95577.19;1271838;23;20056;-69
2021/03/11 01:58:53;;;;;;;18.27;10.00;;;;;;;2.16;82.31;95577.78;1272063;23;20032;-68
2021/03/11 01:59:23;;;;;;;14.30;9.23;;;;;;;2.19;81.75;95572.03;1271925;23;20014;-69
2021/03/11 01:59:54;;;;;;;14.83;9.20;;;;;;;2.20;81.45;95568.38;1278236;23;20477;-69
2021/03/11 02:00:24;;;;;;;15.20;9.43;;;;;;;2.21;81.83;95573.44;1278045;23;19997;-69
2021/03/11 02:00:55;;;;;;;13.83;9.43;;;;;;;2.22;81.82;95571.59;1278321;23;20008;-68
2021/03/11 02:01:25;;;;;;;16.57;9.47;;;;;;;2.26;81.58;95570.91;1271905;23;20006;-68
2021/03/11 02:01:57;;;;;;;14.30;9.47;;;;;;;2.29;80.67;95575.72;1272108;23;20001;-69
2021/03/11 02:02:27;;;;;;;12.05;8.35;;;;;;;2.31;80.63;95573.66;1271881;23;20005;-69
2021/03/11 02:02:58;;;;;;;14.50;9.10;;;;;;;2.31;80.54;95580.78;1266704;23;20408;-69
2021/03/11 02:03:28;;;;;;;14.93;8.57;;;;;;;2.34;80.67;95575.84;1271892;23;20010;-68
2021/03/11 02:03:59;;;;;;;17.47;9.60;;;;;;;2.36;80.74;95570.34;1271975;23;20528;-69
2021/03/11 02:04:29;;;;;;;11.70;9.20;;;;;;;2.34;80.86;95573.19;1271982;23;20112;-69
2021/03/11 02:05:00;;;;;;;16.00;9.53;;;;;;;2.37;81.21;95569.31;1284178;23;20020;-69
2021/03/11 02:05:30;;;;;;;14.70;9.43;;;;;;;2.39;80.60;95566.44;1284523;23;20005;-69
2021/03/11 02:06:02;;;;;;;14.73;9.53;;;;;;;2.42;81.12;95566.78;1284657;23;20072;-69
2021/03/11 02:06:33;;;;;;;14.82;10.05;;;;;;;2.42;81.07;95571.28;1284648;23;19992;-69
2021/03/11 02:07:03;;;;;;;12.90;9.40;;;;;;;2.39;81.23;95566.44;1284442;23;20419;-69
2021/03/11 02:07:34;;;;;;;14.10;9.03;;;;;;;2.43;80.88;95570.25;1284555;23;20000;-68
2021/03/11 02:08:04;;;;;;;12.57;9.13;;;;;;;2.46;80.78;95567.94;1284173;23;20319;-68
2021/03/11 02:08:35;;;;;;;14.47;9.70;;;;;;;2.46;80.91;95573.22;1284297;23;20598;-69
2021/03/11 02:09:05;;;;;;;14.40;9.50;;;;;;;2.48;80.37;95565.06;1284326;23;20505;-68
2021/03/11 02:09:36;;;;;;;14.43;9.50;;;;;;;2.46;80.48;95565.31;1278208;23;20012;-68
2021/03/11 02:10:08;;;;;;;15.88;9.00;;;;;;;2.44;81.09;95563.91;1284345;23;20409;-68
2021/03/11 02:10:38;;;;;;;15.57;10.13;;;;;;;2.46;80.99;95567.94;1284152;23;20004;-69
2021/03/11 02:11:11;;;;;;;14.63;10.00;;;;;;;2.45;80.60;95563.69;1272277;23;20001;-69
2021/03/11 02:11:45;;;;;;;14.68;9.60;;;;;;;2.48;80.78;95562.44;1271896;23;20001;-68
2021/03/11 02:12:26;;;;;;;14.93;10.15;;;;;;;2.51;80.65;95562.78;1271718;23;19998;-68
2021/03/11 02:13:15;;;;;;;13.35;9.60;;;;;;;2.58;80.34;95552.91;1278667;23;20009;-68
2021/03/11 02:14:10;;;;;;;15.40;9.40;;;;;;;2.66;80.55;95564.13;1284305;23;20009;-68
2021/03/11 02:14:45;;;;;;;13.35;9.30;;;;;;;2.67;80.41;95561.28;1287381;23;20058;-69
2021/03/11 02:15:55;;;;;;;15.00;10.00;;;;;;;2.68;80.13;95552.34;1278097;23;20008;-68
2021/03/11 02:16:31;;;;;;;14.68;9.15;;;;;;;2.69;80.38;95559.22;1253493;23;20586;-69
2021/03/11 02:17:01;;;;;;;12.93;8.38;;;;;;;2.72;80.41;95557.97;1259146;23;20007;-69
2021/03/11 02:17:50;;;;;;;13.48;9.20;;;;;;;2.72;80.16;95550.84;1265913;23;20001;-68
2021/03/11 02:18:34;;;;;;;16.00;9.32;;;;;;;2.72;79.78;95550.06;1265879;23;20006;-69
2021/03/11 02:19:42;;;;;;;14.88;8.93;;;;;;;2.70;79.86;95546.81;1266008;23;20006;-69
2021/03/11 02:20:21;;;;;;;12.65;8.68;;;;;;;2.73;80.13;95560.38;1282351;23;20446;-69
2021/03/11 02:20:56;;;;;;;14.15;9.15;;;;;;;2.74;79.54;95551.41;1281228;23;20092;-69
2021/03/11 02:22:14;;;;;;;15.98;9.45;;;;;;;2.80;79.68;95549.69;1284343;23;20001;-69
2021/03/11 02:23:09;;;;;;;14.80;9.95;;;;;;;2.87;78.60;95555.66;1282305;23;20004;-70
2021/03/11 02:23:48;;;;;;;14.13;9.13;;;;;;;2.85;78.67;95555.06;1284083;23;20015;-69
2021/03/11 02:25:05;;;;;;;14.77;8.95;;;;;;;2.83;79.18;95551.88;1287004;23;20001;-69
2021/03/11 02:25:53;;;;;;;13.82;9.35;;;;;;;2.85;78.86;95545.31;1277700;23;20001;-69
2021/03/11 02:26:44;;;;;;;14.00;8.88;;;;;;;2.88;78.27;95538.78;1283264;23;20366;-69
2021/03/11 02:27:40;;;;;;;15.68;8.85;;;;;;;2.85;78.88;95549.78;1290406;23;20477;-70
2021/03/11 02:28:15;;;;;;;15.35;9.80;;;;;;;2.83;78.84;95544.75;1285946;23;20450;-69
2021/03/11 02:28:55;;;;;;;16.13;9.38;;;;;;;2.83;78.63;95533.41;1278242;23;20016;-69
2021/03/11 02:29:28;;;;;;;14.73;9.43;;;;;;;2.84;78.25;95532.34;1277938;23;20383;-69